createdAt,value
2024-02-12T00:01:14.170Z,6.13
2024-02-12T00:03:42.223Z,4.80
2024-02-12T00:06:10.313Z,4.43
2024-02-12T00:08:38.493Z,5.05
2024-02-12T00:11:06.482Z,3.75
2024-02-12T00:13:35.757Z,3.42
2024-02-12T00:16:06.364Z,4.25
2024-02-12T00:18:34.415Z,5.40
2024-02-12T00:21:04.308Z,3.30
2024-02-12T00:23:32.277Z,4.32
2024-02-12T00:26:00.948Z,4.57
2024-02-12T00:28:29.829Z,4.85
2024-02-12T00:31:01.432Z,5.45
2024-02-12T00:33:30.410Z,4.80
2024-02-12T00:35:59.479Z,3.83
2024-02-12T00:38:28.995Z,3.00
2024-02-12T00:40:58.378Z,3.95
2024-02-12T00:43:28.009Z,4.13
2024-02-12T00:45:57.852Z,2.83
2024-02-12T00:48:29.260Z,4.32
2024-02-12T00:50:57.213Z,3.92
2024-02-12T00:53:28.104Z,3.53
2024-02-12T00:56:29.528Z,4.82
2024-02-12T00:58:47.243Z,3.65
2024-02-12T01:01:15.540Z,5.70
2024-02-12T01:03:45.393Z,4.20
2024-02-12T01:06:13.442Z,4.00
2024-02-12T01:08:42.822Z,4.50
2024-02-12T01:11:11.663Z,5.30
2024-02-12T01:13:39.606Z,3.47
2024-02-12T01:16:08.022Z,3.88
2024-02-12T01:18:35.965Z,3.90
2024-02-12T01:21:05.496Z,4.22
2024-02-12T01:23:34.155Z,3.45
2024-02-12T01:26:02.242Z,4.03
2024-02-12T01:28:32.228Z,3.67
2024-02-12T01:31:00.200Z,3.67
2024-02-12T01:33:31.845Z,4.35
2024-02-12T01:36:01.338Z,4.65
2024-02-12T01:38:30.687Z,5.18
2024-02-12T01:41:00.025Z,4.63
2024-02-12T01:43:33.576Z,3.80
2024-02-12T01:46:01.488Z,5.05
2024-02-12T01:48:31.322Z,4.18
2024-02-12T01:51:01.411Z,3.65
2024-02-12T01:53:31.551Z,4.15
2024-02-12T01:55:59.914Z,3.95
2024-02-12T01:58:31.847Z,4.25
2024-02-12T02:01:00.035Z,3.58
2024-02-12T02:03:28.254Z,4.28
2024-02-12T02:05:57.258Z,5.05
2024-02-12T02:08:35.520Z,5.68
2024-02-12T02:11:03.806Z,5.07
2024-02-12T02:13:31.904Z,4.85
2024-02-12T02:16:00.598Z,4.68
2024-02-12T02:18:28.603Z,4.35
2024-02-12T02:20:57.085Z,7.28
2024-02-12T02:23:28.819Z,5.25
2024-02-12T02:25:58.194Z,4.18
2024-02-12T02:28:26.951Z,6.10
2024-02-12T02:30:58.154Z,5.53
2024-02-12T02:33:26.154Z,5.13
2024-02-12T02:35:55.495Z,5.65
2024-02-12T02:38:24.092Z,6.60
2024-02-12T02:40:54.339Z,6.13
2024-02-12T02:43:24.885Z,7.40
2024-02-12T02:45:53.502Z,5.38
2024-02-12T02:48:21.462Z,6.15
2024-02-12T02:50:49.447Z,7.22
2024-02-12T02:53:22.182Z,7.28
2024-02-12T02:55:51.474Z,5.53
2024-02-12T02:58:23.583Z,5.43
2024-02-12T03:00:54.474Z,6.00
2024-02-12T03:03:23.966Z,6.45
2024-02-12T03:05:53.295Z,5.63
2024-02-12T03:08:21.433Z,5.78
2024-02-12T03:10:54.687Z,7.03
2024-02-12T03:13:25.543Z,6.55
2024-02-12T03:15:56.897Z,6.88
2024-02-12T03:18:24.865Z,7.00
2024-02-12T03:20:55.386Z,5.97
2024-02-12T03:23:23.756Z,7.10
2024-02-12T03:25:51.931Z,5.93
2024-02-12T03:28:19.879Z,6.53
2024-02-12T03:30:49.176Z,6.50
2024-02-12T03:33:17.166Z,8.75
2024-02-12T03:35:45.122Z,6.82
2024-02-12T03:38:13.083Z,6.88
2024-02-12T03:40:42.055Z,8.07
2024-02-12T03:43:11.548Z,6.05
2024-02-12T03:45:45.301Z,6.95
2024-02-12T03:48:37.039Z,7.00
2024-02-12T03:51:23.020Z,7.00
2024-02-12T03:54:08.316Z,6.97
2024-02-12T03:56:53.659Z,6.45
2024-02-12T03:59:38.197Z,7.65
2024-02-12T04:02:06.192Z,6.03
2024-02-12T04:04:41.537Z,7.78
2024-02-12T04:07:09.520Z,5.78
2024-02-12T04:09:39.961Z,5.40
2024-02-12T04:12:12.321Z,7.30
2024-02-12T04:14:44.311Z,7.40
2024-02-12T04:17:13.156Z,7.68
2024-02-12T04:19:44.261Z,6.18
2024-02-12T04:22:14.249Z,6.10
2024-02-12T04:24:42.703Z,6.15
2024-02-12T04:27:11.364Z,7.10
2024-02-12T04:29:41.386Z,6.82
2024-02-12T04:32:10.985Z,5.30
2024-02-12T04:34:40.002Z,6.30
2024-02-12T04:37:11.714Z,7.70
2024-02-12T04:39:42.294Z,8.60
2024-02-12T04:42:10.376Z,6.63
2024-02-12T04:44:38.432Z,6.55
2024-02-12T04:47:07.137Z,6.68
2024-02-12T04:49:38.474Z,8.02
2024-02-12T04:52:07.237Z,5.88
2024-02-12T04:54:37.866Z,6.20
2024-02-12T04:57:06.990Z,6.93
2024-02-12T04:59:36.055Z,6.07
2024-02-12T05:02:06.851Z,7.80
2024-02-12T05:04:35.829Z,6.63
2024-02-12T05:07:03.982Z,5.80
2024-02-12T05:09:31.887Z,6.95
2024-02-12T05:12:01.261Z,6.40
2024-02-12T05:14:35.742Z,6.25
2024-02-12T05:17:06.960Z,6.78
2024-02-12T05:19:52.308Z,6.43
2024-02-12T05:22:35.518Z,7.18
2024-02-12T05:25:07.080Z,6.93
2024-02-12T05:27:36.877Z,7.90
2024-02-12T05:30:05.891Z,7.00
2024-02-12T05:32:33.855Z,8.30
2024-02-12T05:35:01.893Z,5.57
2024-02-12T05:37:29.860Z,7.15
2024-02-12T05:40:00.392Z,6.88
2024-02-12T05:42:28.552Z,6.57
2024-02-12T05:44:58.019Z,5.78
2024-02-12T05:47:26.178Z,7.57
2024-02-12T05:49:54.687Z,8.32
2024-02-12T05:52:22.628Z,6.47
2024-02-12T05:54:52.530Z,7.15
2024-02-12T05:57:20.454Z,6.18
2024-02-12T05:59:48.653Z,6.30
2024-02-12T06:02:20.833Z,5.35
2024-02-12T06:04:48.791Z,6.95
2024-02-12T06:07:17.103Z,7.32
2024-02-12T06:09:45.120Z,6.88
2024-02-12T06:12:16.194Z,7.22
2024-02-12T06:14:44.107Z,7.75
2024-02-12T06:17:12.299Z,6.97
2024-02-12T06:19:42.520Z,6.13
2024-02-12T06:22:11.429Z,6.93
2024-02-12T06:24:39.388Z,7.15
2024-02-12T06:27:09.102Z,8.00
2024-02-12T06:29:39.100Z,7.25
2024-02-12T06:32:15.185Z,6.15
2024-02-12T06:34:48.071Z,9.05
2024-02-12T06:37:17.677Z,6.85
2024-02-12T06:39:45.610Z,8.05
2024-02-12T06:42:13.945Z,8.50
2024-02-12T06:44:45.700Z,6.88
2024-02-12T06:47:13.606Z,7.72
2024-02-12T06:49:43.044Z,8.20
2024-02-12T06:52:12.304Z,7.40
2024-02-12T06:54:40.200Z,9.57
2024-02-12T06:57:08.131Z,8.20
2024-02-12T06:59:39.052Z,7.30
2024-02-12T07:02:07.111Z,6.72
2024-02-12T07:04:35.120Z,7.35
2024-02-12T07:07:03.013Z,8.18
2024-02-12T07:09:32.222Z,8.65
2024-02-12T07:12:01.292Z,7.65
2024-02-12T07:14:29.684Z,7.43
2024-02-12T07:16:57.983Z,6.80
2024-02-12T07:19:28.542Z,6.93
2024-02-12T07:21:56.408Z,8.25
2024-02-12T07:24:29.877Z,8.63
2024-02-12T07:26:59.102Z,9.05
2024-02-12T07:29:27.075Z,8.57
2024-02-12T07:31:55.514Z,8.93
2024-02-12T07:34:23.607Z,7.38
2024-02-12T07:36:53.028Z,8.13
2024-02-12T07:39:21.031Z,6.53
2024-02-12T07:41:49.179Z,10.30
2024-02-12T07:44:18.482Z,9.88
2024-02-12T07:46:48.072Z,8.07
2024-02-12T07:49:16.546Z,10.35
2024-02-12T07:51:45.702Z,11.07
2024-02-12T07:54:14.236Z,11.98
2024-02-12T07:56:42.537Z,12.15
2024-02-12T07:59:10.463Z,12.50
2024-02-12T08:01:39.768Z,15.57
2024-02-12T08:04:09.097Z,13.95
2024-02-12T08:06:37.109Z,14.25
2024-02-12T08:09:05.655Z,12.65
2024-02-12T08:11:43.763Z,14.20
2024-02-12T08:14:12.989Z,14.23
2024-02-12T08:16:44.615Z,13.50
2024-02-12T08:19:12.912Z,12.73
2024-02-12T08:21:43.500Z,15.18
2024-02-12T08:24:11.507Z,13.25
2024-02-12T08:26:43.646Z,14.85
2024-02-12T08:29:13.339Z,12.80
2024-02-12T08:31:41.646Z,10.43
2024-02-12T08:34:12.377Z,11.00
2024-02-12T08:36:42.808Z,16.05
2024-02-12T08:39:18.547Z,15.32
2024-02-12T08:41:48.618Z,14.25
2024-02-12T08:44:19.528Z,13.85
2024-02-12T08:46:47.448Z,12.55
2024-02-12T08:49:16.935Z,16.77
2024-02-12T08:51:45.412Z,11.85
2024-02-12T08:54:13.481Z,11.65
2024-02-12T08:56:43.075Z,15.07
2024-02-12T08:59:11.122Z,14.65
2024-02-12T09:01:39.854Z,15.88
2024-02-12T09:04:08.530Z,28.98
2024-02-12T09:06:39.669Z,28.20
2024-02-12T09:09:07.729Z,14.38
2024-02-12T09:11:35.685Z,20.13
2024-02-12T09:14:03.718Z,26.00
2024-02-12T09:16:31.658Z,17.38
2024-02-12T09:18:59.959Z,17.83
2024-02-12T09:21:27.931Z,13.85
2024-02-12T09:23:57.129Z,19.70
2024-02-12T09:26:26.863Z,20.70
2024-02-12T09:28:55.146Z,15.48
2024-02-12T09:31:23.055Z,15.23
2024-02-12T09:33:51.127Z,17.98
2024-02-12T09:36:19.746Z,16.90
2024-02-12T09:38:49.130Z,20.20
2024-02-12T09:41:18.423Z,17.45
2024-02-12T09:43:46.409Z,11.98
2024-02-12T09:46:16.483Z,26.23
2024-02-12T09:48:44.464Z,19.27
2024-02-12T09:51:14.091Z,11.00
2024-02-12T09:53:43.193Z,27.25
2024-02-12T09:56:11.375Z,18.65
2024-02-12T09:58:40.652Z,12.45
2024-02-12T10:01:09.130Z,18.67
2024-02-12T10:03:37.149Z,15.52
2024-02-12T10:06:05.328Z,10.48
2024-02-12T10:08:34.001Z,20.38
2024-02-12T10:11:03.641Z,16.70
2024-02-12T10:13:31.640Z,16.98
2024-02-12T10:16:01.826Z,16.88
2024-02-12T10:18:29.881Z,13.10
2024-02-12T10:20:58.400Z,17.27
2024-02-12T10:23:26.382Z,14.55
2024-02-12T10:25:54.314Z,13.57
2024-02-12T10:28:23.029Z,12.90
2024-02-12T10:30:51.745Z,14.25
2024-02-12T10:33:24.672Z,16.85
2024-02-12T10:35:52.808Z,18.63
2024-02-12T10:38:20.943Z,19.55
2024-02-12T10:40:52.805Z,17.20
2024-02-12T10:43:21.347Z,16.67
2024-02-12T10:45:50.024Z,17.15
2024-02-12T10:48:18.020Z,16.90
2024-02-12T10:50:50.042Z,13.77
2024-02-12T10:53:18.732Z,19.45
2024-02-12T10:55:46.848Z,20.00
2024-02-12T10:58:14.802Z,15.40
2024-02-12T11:00:49.731Z,13.25
2024-02-12T11:03:30.153Z,13.82
2024-02-12T11:06:09.601Z,14.30
2024-02-12T11:08:38.297Z,19.95
2024-02-12T11:11:14.092Z,14.18
2024-02-12T11:13:44.046Z,13.50
2024-02-12T11:16:19.551Z,13.73
2024-02-12T11:18:48.763Z,11.75
2024-02-12T11:21:23.409Z,14.80
2024-02-12T11:23:53.160Z,11.80
2024-02-12T11:26:32.537Z,13.82
2024-02-12T11:29:04.656Z,18.70
2024-02-12T11:31:35.135Z,15.55
2024-02-12T11:34:03.372Z,17.23
2024-02-12T11:36:33.178Z,18.17
2024-02-12T11:39:02.951Z,15.38
2024-02-12T11:41:33.202Z,16.50
2024-02-12T11:44:07.134Z,16.83
2024-02-12T11:46:38.008Z,12.35
2024-02-12T11:49:07.837Z,17.15
2024-02-12T11:51:37.905Z,17.30
2024-02-12T11:54:07.023Z,12.75
2024-02-12T11:56:35.352Z,15.07
2024-02-12T11:59:06.539Z,21.33
2024-02-12T12:01:36.624Z,17.42
2024-02-12T12:04:05.124Z,18.92
2024-02-12T12:06:33.479Z,15.88
2024-02-12T12:09:03.521Z,20.60
2024-02-12T12:11:34.123Z,17.58
2024-02-12T12:14:02.387Z,16.77
2024-02-12T12:16:31.432Z,14.45
2024-02-12T12:19:09.081Z,14.65
2024-02-12T12:21:37.729Z,16.45
2024-02-12T12:24:10.137Z,16.17
2024-02-12T12:26:38.112Z,14.32
2024-02-12T12:29:06.826Z,17.23
2024-02-12T12:31:37.532Z,16.08
2024-02-12T12:34:07.553Z,18.23
2024-02-12T12:36:35.945Z,15.95
2024-02-12T12:39:07.244Z,17.40
2024-02-12T12:41:47.111Z,12.15
2024-02-12T12:44:16.612Z,11.88
2024-02-12T12:46:44.996Z,11.50
2024-02-12T12:49:16.883Z,14.52
2024-02-12T12:51:46.159Z,13.95
2024-02-12T12:54:14.009Z,15.35
2024-02-12T12:56:44.957Z,16.33
2024-02-12T12:59:12.967Z,12.18
2024-02-12T13:01:42.223Z,14.20
2024-02-12T13:04:12.513Z,22.67
2024-02-12T13:06:44.064Z,19.80
2024-02-12T13:09:12.422Z,18.05
2024-02-12T13:11:40.538Z,20.23
2024-02-12T13:14:09.145Z,14.35
2024-02-12T13:16:37.212Z,16.38
2024-02-12T13:19:07.776Z,9.80
2024-02-12T13:21:39.691Z,13.52
2024-02-12T13:24:11.204Z,12.60
2024-02-12T13:26:39.345Z,15.20
2024-02-12T13:29:08.274Z,17.08
2024-02-12T13:31:36.816Z,13.75
2024-02-12T13:34:06.181Z,13.15
2024-02-12T13:36:49.611Z,13.45
2024-02-12T13:39:20.762Z,15.65
2024-02-12T13:41:48.900Z,12.25
2024-02-12T13:44:17.068Z,14.05
2024-02-12T13:46:50.946Z,12.10
2024-02-12T13:49:23.492Z,8.88
2024-02-12T13:51:53.647Z,19.85
2024-02-12T13:54:21.515Z,11.25
2024-02-12T13:56:49.576Z,11.98
2024-02-12T13:59:17.859Z,13.13
2024-02-12T14:01:53.550Z,7.53
2024-02-12T14:04:27.806Z,10.38
2024-02-12T14:06:58.018Z,11.07
2024-02-12T14:09:26.260Z,8.68
2024-02-12T14:11:54.272Z,7.20
2024-02-12T14:14:22.230Z,9.93
2024-02-12T14:16:51.383Z,8.85
2024-02-12T14:19:19.407Z,11.27
2024-02-12T14:21:48.742Z,9.88
2024-02-12T14:24:16.962Z,7.05
2024-02-12T14:26:58.819Z,9.70
2024-02-12T14:29:28.751Z,8.80
2024-02-12T14:32:36.914Z,9.25
2024-02-12T14:34:47.517Z,7.10
2024-02-12T14:37:17.684Z,11.20
2024-02-12T14:39:45.797Z,3.40
2024-02-12T14:42:13.926Z,10.80
2024-02-12T14:44:41.930Z,7.35
2024-02-12T14:47:09.996Z,11.95
2024-02-12T14:49:38.946Z,8.45
2024-02-12T14:52:08.152Z,10.52
2024-02-12T14:54:37.445Z,11.15
2024-02-12T14:57:05.697Z,5.35
2024-02-12T14:59:36.127Z,11.52
2024-02-12T15:02:06.723Z,9.65
2024-02-12T15:04:37.561Z,17.60
2024-02-12T15:07:05.574Z,9.98
2024-02-12T15:09:33.525Z,14.93
2024-02-12T15:12:06.473Z,19.45
2024-02-12T15:14:34.414Z,24.08
2024-02-12T15:17:02.904Z,10.57
2024-02-12T15:19:30.884Z,12.98
2024-02-12T15:21:58.880Z,9.32
2024-02-12T15:24:26.854Z,15.38
2024-02-12T15:26:57.731Z,18.60
2024-02-12T15:29:27.024Z,20.45
2024-02-12T15:31:54.909Z,18.85
2024-02-12T15:34:25.523Z,13.95
2024-02-12T15:36:53.640Z,11.00
2024-02-12T15:39:21.584Z,8.07
2024-02-12T15:41:49.549Z,11.55
2024-02-12T15:44:21.585Z,9.93
2024-02-12T15:46:53.614Z,13.52
2024-02-12T15:49:31.887Z,18.90
2024-02-12T15:52:01.132Z,20.55
2024-02-12T15:54:30.428Z,26.00
2024-02-12T15:57:01.228Z,23.02
2024-02-12T15:59:34.624Z,14.20
2024-02-12T16:02:08.880Z,18.23
2024-02-12T16:04:37.943Z,21.10
2024-02-12T16:07:07.689Z,9.90
2024-02-12T16:09:35.762Z,16.85
2024-02-12T16:12:09.469Z,18.48
2024-02-12T16:14:41.126Z,3.55
2024-02-12T16:17:14.429Z,9.85
2024-02-12T16:19:42.408Z,8.75
2024-02-12T16:22:10.273Z,10.60
2024-02-12T16:24:38.380Z,8.85
2024-02-12T16:27:08.309Z,12.63
2024-02-12T16:29:36.367Z,10.73
2024-02-12T16:32:05.590Z,9.75
2024-02-12T16:34:40.757Z,4.10
2024-02-12T16:37:11.134Z,13.18
2024-02-12T16:39:40.760Z,7.32
2024-02-12T16:42:08.830Z,8.13
2024-02-12T16:44:39.421Z,9.63
2024-02-12T16:47:07.623Z,8.18
2024-02-12T16:49:39.757Z,8.77
2024-02-12T16:52:07.852Z,11.18
2024-02-12T16:54:36.088Z,4.38
2024-02-12T16:57:05.358Z,10.55
2024-02-12T16:59:37.755Z,7.68
2024-02-12T17:02:06.796Z,9.18
2024-02-12T17:04:34.812Z,10.00
2024-02-12T17:07:04.168Z,4.85
2024-02-12T17:09:32.140Z,5.63
2024-02-12T17:12:00.058Z,9.98
2024-02-12T17:14:28.049Z,9.40
2024-02-12T17:16:55.992Z,7.75
2024-02-12T17:19:23.962Z,5.30
2024-02-12T17:21:57.387Z,6.25
2024-02-12T17:24:27.342Z,4.65
2024-02-12T17:26:55.666Z,18.90
2024-02-12T17:29:24.334Z,14.98
2024-02-12T17:31:57.874Z,105.72
2024-02-12T17:34:26.776Z,130.07
2024-02-12T17:36:55.824Z,204.65
2024-02-12T17:39:24.288Z,162.63
2024-02-12T17:41:55.334Z,120.43
2024-02-12T17:44:23.402Z,124.53
2024-02-12T17:46:51.499Z,112.15
2024-02-12T17:49:20.495Z,102.38
2024-02-12T17:51:48.424Z,102.82
2024-02-12T17:54:16.319Z,88.63
2024-02-12T17:56:45.233Z,91.10
2024-02-12T17:59:15.839Z,77.20
2024-02-12T18:01:43.716Z,86.75
2024-02-12T18:04:13.567Z,87.28
2024-02-12T18:06:41.713Z,72.72
2024-02-12T18:09:09.702Z,81.00
2024-02-12T18:11:40.247Z,94.70
2024-02-12T18:14:08.906Z,79.82
2024-02-12T18:16:38.274Z,78.03
2024-02-12T18:19:06.396Z,84.20
2024-02-12T18:21:34.324Z,83.47
2024-02-12T18:24:02.201Z,80.07
2024-02-12T18:26:31.067Z,74.40
2024-02-12T18:29:01.811Z,81.90
2024-02-12T18:31:30.702Z,73.10
2024-02-12T18:34:01.204Z,67.68
2024-02-12T18:36:29.167Z,63.60
2024-02-12T18:38:59.383Z,55.85
2024-02-12T18:41:29.525Z,55.55
2024-02-12T18:43:57.502Z,48.97
2024-02-12T18:46:25.437Z,50.00
2024-02-12T18:48:55.550Z,47.35
2024-02-12T18:51:25.549Z,44.05
2024-02-12T18:53:53.509Z,43.08
2024-02-12T18:56:26.200Z,40.33
2024-02-12T18:58:54.593Z,39.63
2024-02-12T19:01:23.384Z,38.03
2024-02-12T19:03:54.014Z,39.67
2024-02-12T19:06:24.486Z,35.58
2024-02-12T19:08:54.116Z,35.17
2024-02-12T19:11:25.186Z,29.23
2024-02-12T19:13:53.979Z,31.60
2024-02-12T19:16:24.881Z,34.92
2024-02-12T19:18:52.992Z,31.75
2024-02-12T19:21:21.382Z,34.25
2024-02-12T19:23:49.538Z,26.92
2024-02-12T19:26:21.455Z,27.65
2024-02-12T19:28:50.869Z,29.30
2024-02-12T19:31:19.164Z,27.60
2024-02-12T19:33:47.423Z,25.83
2024-02-12T19:36:15.427Z,30.13
2024-02-12T19:38:44.591Z,25.83
2024-02-12T19:41:12.597Z,26.73
2024-02-12T19:43:41.964Z,30.58
2024-02-12T19:46:11.011Z,28.40
2024-02-12T19:48:39.052Z,22.33
2024-02-12T19:51:07.003Z,32.53
2024-02-12T19:53:36.162Z,22.70
2024-02-12T19:56:06.013Z,20.77
2024-02-12T19:58:35.437Z,21.83
2024-02-12T20:01:07.615Z,24.58
2024-02-12T20:03:35.946Z,23.20
2024-02-12T20:06:06.700Z,22.30
2024-02-12T20:08:35.684Z,19.65
2024-02-12T20:11:04.972Z,21.73
2024-02-12T20:13:32.924Z,21.90
2024-02-12T20:16:00.868Z,18.98
2024-02-12T20:18:30.749Z,21.70
2024-02-12T20:20:58.844Z,19.83
2024-02-12T20:23:26.875Z,20.45
2024-02-12T20:25:55.513Z,18.48
2024-02-12T20:28:27.093Z,19.80
2024-02-12T20:30:55.688Z,18.67
2024-02-12T20:33:23.826Z,17.55
2024-02-12T20:35:53.337Z,12.90
2024-02-12T20:38:21.344Z,17.20
2024-02-12T20:40:49.325Z,17.58
2024-02-12T20:43:21.366Z,17.55
2024-02-12T20:45:49.463Z,13.80
2024-02-12T20:48:18.656Z,15.63
2024-02-12T20:50:46.855Z,12.82
2024-02-12T20:53:16.224Z,12.65
2024-02-12T20:55:46.868Z,12.30
2024-02-12T20:58:14.815Z,19.05
2024-02-12T21:00:42.691Z,12.25
2024-02-12T21:03:10.655Z,10.57
2024-02-12T21:05:38.832Z,12.82
2024-02-12T21:08:08.343Z,11.10
2024-02-12T21:10:38.253Z,11.55
2024-02-12T21:13:07.576Z,9.52
2024-02-12T21:15:36.628Z,15.95
2024-02-12T21:18:07.711Z,11.55
2024-02-12T21:20:37.202Z,11.27
2024-02-12T21:23:06.949Z,9.05
2024-02-12T21:25:34.913Z,9.63
2024-02-12T21:28:09.542Z,11.27
2024-02-12T21:30:37.445Z,9.13
2024-02-12T21:33:05.864Z,9.70
2024-02-12T21:35:33.971Z,9.32
2024-02-12T21:38:01.873Z,13.88
2024-02-12T21:40:30.800Z,8.65
2024-02-12T21:43:00.011Z,8.10
2024-02-12T21:45:29.788Z,8.07
2024-02-12T21:47:58.543Z,7.20
2024-02-12T21:50:26.778Z,8.90
2024-02-12T21:52:56.921Z,11.77
2024-02-12T21:55:24.938Z,6.68
2024-02-12T21:57:53.162Z,9.85
2024-02-12T22:00:22.714Z,8.43
2024-02-12T22:02:52.990Z,9.32
2024-02-12T22:05:21.854Z,6.55
2024-02-12T22:07:50.151Z,8.63
2024-02-12T22:10:18.063Z,6.53
2024-02-12T22:12:45.968Z,11.25
2024-02-12T22:15:13.844Z,10.20
2024-02-12T22:17:43.158Z,9.30
2024-02-12T22:20:15.650Z,7.00
2024-02-12T22:22:44.064Z,9.07
2024-02-12T22:25:12.262Z,8.27
2024-02-12T22:27:40.182Z,9.88
2024-02-12T22:30:08.760Z,6.13
2024-02-12T22:32:36.930Z,7.80
2024-02-12T22:35:07.964Z,7.57
2024-02-12T22:37:37.473Z,7.07
2024-02-12T22:40:05.972Z,7.50
2024-02-12T22:42:33.860Z,5.55
2024-02-12T22:45:02.014Z,5.45
2024-02-12T22:47:29.953Z,6.22
2024-02-12T22:49:57.886Z,7.78
2024-02-12T22:52:25.960Z,4.95
2024-02-12T22:54:55.460Z,6.22
2024-02-12T22:57:23.365Z,7.57
2024-02-12T22:59:51.399Z,7.93
2024-02-12T23:02:19.455Z,3.70
2024-02-12T23:04:47.355Z,5.82
2024-02-12T23:07:15.301Z,5.82
2024-02-12T23:09:43.197Z,5.93
2024-02-12T23:12:18.501Z,7.65
2024-02-12T23:14:46.634Z,6.55
2024-02-12T23:17:14.615Z,4.80
2024-02-12T23:19:42.629Z,4.35
2024-02-12T23:22:10.592Z,4.10
2024-02-12T23:24:39.812Z,6.32
2024-02-12T23:27:09.236Z,3.90
2024-02-12T23:29:39.569Z,6.25
2024-02-12T23:32:10.247Z,3.92
2024-02-12T23:34:38.219Z,6.93
2024-02-12T23:37:07.744Z,4.35
2024-02-12T23:39:35.627Z,4.40
2024-02-12T23:42:07.869Z,2.95
2024-02-12T23:44:38.022Z,3.92
2024-02-12T23:47:08.036Z,4.38
2024-02-12T23:49:36.273Z,5.15
2024-02-12T23:52:05.142Z,4.72
2024-02-12T23:54:33.882Z,5.75
2024-02-12T23:57:04.830Z,7.47
2024-02-12T23:59:32.802Z,4.38
